Time;durP1;ratioP1;P1;durP2;ratioP2;P2;SDS_P1;SDS_P2;PMS_P1;PMS_P2;Temp;Humidity;BMP_temperature;BMP_pressure;BME280_temperature;BME280_humidity;BME280_pressure;Samples;Min_cycle;Max_cycle;Signal;HPM_P1;HPM_P2
2022/08/31 00:05:39;;;;;;;0.60;0.60;;;;;;;23.40;28.16;100962.97;5055818;28;20028;-79
2022/08/31 00:08:04;;;;;;;0.52;0.52;;;;;;;23.38;28.10;100961.56;5055301;28;20025;-79
2022/08/31 00:10:30;;;;;;;0.55;0.55;;;;;;;23.37;28.39;100958.03;5055344;28;20108;-79
2022/08/31 00:12:56;;;;;;;0.52;0.52;;;;;;;23.38;28.40;100961.56;5055289;28;20025;-79
2022/08/31 00:15:22;;;;;;;0.60;0.60;;;;;;;23.38;28.59;100951.47;5055357;28;20037;-78
2022/08/31 00:17:48;;;;;;;0.60;0.60;;;;;;;23.37;28.42;100943.53;5055297;28;20025;-80
2022/08/31 00:20:13;;;;;;;0.50;0.50;;;;;;;23.37;28.30;100954.47;5055490;28;20040;-79
2022/08/31 00:22:39;;;;;;;0.60;0.60;;;;;;;23.35;28.38;100949.28;5055176;28;20079;-79
2022/08/31 00:25:05;;;;;;;0.60;0.60;;;;;;;23.34;28.26;100939.44;5055539;28;20032;-80
2022/08/31 00:27:30;;;;;;;0.55;0.55;;;;;;;23.36;28.01;100945.47;5055832;28;20357;-79
2022/08/31 00:29:56;;;;;;;0.60;0.60;;;;;;;23.36;28.50;100948.19;5055492;28;20400;-80
2022/08/31 00:32:21;;;;;;;0.70;0.70;;;;;;;23.35;28.40;100941.09;5055378;28;20468;-79
2022/08/31 00:34:47;;;;;;;0.60;0.60;;;;;;;23.36;28.38;100947.38;5063062;28;20514;-79
2022/08/31 00:37:12;;;;;;;0.60;0.60;;;;;;;23.37;28.14;100949.00;5075365;28;20485;-79
2022/08/31 00:39:38;;;;;;;0.40;0.40;;;;;;;23.36;28.10;100936.47;5075290;28;20490;-79
2022/08/31 00:42:05;;;;;;;0.50;0.50;;;;;;;23.34;28.47;100939.44;5075313;28;20028;-79
2022/08/31 00:44:31;;;;;;;0.50;0.50;;;;;;;23.34;28.28;100944.91;5075913;28;20024;-79
2022/08/31 00:46:56;;;;;;;0.65;0.65;;;;;;;23.34;28.58;100944.09;5075378;28;20414;-79
2022/08/31 00:49:27;;;;;;;0.63;0.63;;;;;;;23.33;28.21;100942.44;5074912;28;20025;-80
2022/08/31 00:52:01;;;;;;;0.50;0.50;;;;;;;23.33;28.13;100940.53;5057167;28;20021;-79
2022/08/31 00:54:33;;;;;;;0.50;0.50;;;;;;;23.34;28.32;100944.09;5057620;28;20055;-79
2022/08/31 00:56:59;;;;;;;0.40;0.40;;;;;;;23.33;28.41;100937.78;5074885;28;20032;-79
2022/08/31 00:59:24;;;;;;;0.50;0.50;;;;;;;23.34;28.48;100939.44;5040124;28;20498;-79
2022/08/31 01:01:50;;;;;;;0.50;0.50;;;;;;;23.33;28.38;100937.78;5056609;28;20021;-79
2022/08/31 01:04:16;;;;;;;0.57;0.57;;;;;;;23.33;28.67;100932.34;5074532;28;20032;-79
2022/08/31 01:06:41;;;;;;;0.45;0.45;;;;;;;23.32;28.70;100938.06;5074263;28;20048;-79
2022/08/31 01:09:07;;;;;;;0.45;0.45;;;;;;;23.33;28.54;100936.97;5074073;28;20024;-80
2022/08/31 01:11:33;;;;;;;0.55;0.55;;;;;;;23.32;28.28;100930.72;5074177;28;20064;-79
2022/08/31 01:13:58;;;;;;;0.70;0.70;;;;;;;23.31;28.49;100928.25;5056660;28;20475;-79
2022/08/31 01:16:33;;;;;;;0.50;0.50;;;;;;;23.31;28.66;100930.97;5056548;28;20044;-79
2022/08/31 01:18:59;;;;;;;0.55;0.55;;;;;;;23.32;28.41;100929.88;5057210;28;20109;-79
2022/08/31 01:21:31;;;;;;;0.50;0.50;;;;;;;23.30;28.62;100926.59;5039432;28;20375;-79
2022/08/31 01:23:58;;;;;;;0.40;0.40;;;;;;;23.31;28.54;100929.06;5056519;28;20027;-79
2022/08/31 01:26:25;;;;;;;0.50;0.50;;;;;;;23.31;28.64;100923.59;4996094;28;20544;-79
2022/08/31 01:28:51;;;;;;;0.50;0.50;;;;;;;23.30;28.54;100927.44;5012279;28;20038;-79
2022/08/31 01:31:32;;;;;;;0.50;0.50;;;;;;;23.31;28.47;100920.88;4979746;28;20118;-79
2022/08/31 01:33:57;;;;;;;0.55;0.55;;;;;;;23.30;28.61;100921.13;5011996;28;20034;-79
2022/08/31 01:36:24;;;;;;;0.47;0.47;;;;;;;23.30;28.37;100921.13;4995872;28;20432;-79
2022/08/31 01:38:49;;;;;;;0.55;0.55;;;;;;;23.30;28.50;100921.13;4995883;28;20040;-79
2022/08/31 01:41:15;;;;;;;0.40;0.40;;;;;;;23.28;28.74;100915.13;5012103;28;20053;-79
2022/08/31 01:43:40;;;;;;;0.35;0.35;;;;;;;23.28;28.83;100921.38;5012047;28;20153;-79
2022/08/31 01:46:08;;;;;;;0.35;0.35;;;;;;;23.27;28.57;100914.31;5011686;28;20147;-79
2022/08/31 01:48:34;;;;;;;0.50;0.50;;;;;;;23.28;28.68;100920.56;5011928;28;20089;-79
2022/08/31 01:51:01;;;;;;;0.40;0.40;;;;;;;23.26;28.48;100915.38;5012171;28;20124;-80
2022/08/31 01:53:27;;;;;;;0.30;0.30;;;;;;;23.28;28.67;100913.22;5011876;28;20156;-80
2022/08/31 01:55:52;;;;;;;0.40;0.40;;;;;;;23.29;28.83;100917.59;5011746;28;20141;-79
2022/08/31 01:58:18;;;;;;;0.43;0.38;;;;;;;23.28;28.61;100902.28;5011938;28;20038;-78
2022/08/31 02:00:43;;;;;;;0.40;0.40;;;;;;;23.29;28.74;100909.41;5011907;28;20396;-79
2022/08/31 02:03:09;;;;;;;0.30;0.30;;;;;;;23.25;28.62;100900.13;5025615;28;20410;-79
2022/08/31 02:05:34;;;;;;;0.30;0.30;;;;;;;23.27;28.71;100911.59;5073584;28;20025;-78
2022/08/31 02:08:01;;;;;;;0.40;0.40;;;;;;;23.27;28.56;100905.28;5073607;28;20417;-78
2022/08/31 02:10:26;;;;;;;0.32;0.32;;;;;;;23.25;28.56;100903.66;5073396;28;20096;-78
2022/08/31 02:12:52;;;;;;;0.32;0.30;;;;;;;23.27;28.70;100900.66;5073266;28;20096;-80
2022/08/31 02:15:18;;;;;;;0.40;0.40;;;;;;;23.26;28.79;100904.47;5073486;28;20112;-79
2022/08/31 02:17:43;;;;;;;0.38;0.38;;;;;;;23.24;28.73;100910.19;5073248;28;20033;-79
2022/08/31 02:20:10;;;;;;;0.30;0.30;;;;;;;23.25;28.80;100902.84;5073256;28;20052;-79
2022/08/31 02:22:35;;;;;;;0.28;0.28;;;;;;;23.25;28.78;100898.19;5073280;28;20104;-79
2022/08/31 02:25:01;;;;;;;0.38;0.38;;;;;;;23.25;28.58;100902.84;5055662;28;20423;-78
2022/08/31 02:27:26;;;;;;;0.22;0.22;;;;;;;23.25;28.51;100900.13;5054737;28;20490;-79
2022/08/31 02:29:52;;;;;;;0.40;0.40;;;;;;;23.24;28.37;100902.00;5073062;28;20020;-79
2022/08/31 02:32:19;;;;;;;0.70;0.50;;;;;;;23.24;28.48;100903.91;5073201;28;20051;-79
2022/08/31 02:34:46;;;;;;;0.30;0.30;;;;;;;23.24;28.57;100901.19;5073170;28;20052;-80
2022/08/31 02:37:11;;;;;;;0.40;0.40;;;;;;;23.24;28.76;100902.00;5072972;28;20028;-79
2022/08/31 02:39:37;;;;;;;0.30;0.30;;;;;;;23.23;28.71;100900.38;5073469;28;20032;-79
2022/08/31 02:42:03;;;;;;;0.30;0.30;;;;;;;23.23;28.36;100900.38;5055718;28;20055;-79
2022/08/31 02:44:28;;;;;;;0.30;0.30;;;;;;;23.22;28.57;100893.25;5073079;28;20489;-79
2022/08/31 02:46:54;;;;;;;0.30;0.30;;;;;;;23.23;28.40;100899.53;5073100;28;20374;-79
2022/08/31 02:49:20;;;;;;;0.30;0.30;;;;;;;23.24;28.55;100907.44;5073574;28;20078;-79
2022/08/31 02:51:46;;;;;;;0.38;0.38;;;;;;;23.23;28.40;100902.25;5073884;28;20029;-79
2022/08/31 02:54:11;;;;;;;0.45;0.38;;;;;;;23.23;28.49;100902.25;5073948;28;20056;-79
2022/08/31 02:56:37;;;;;;;0.40;0.40;;;;;;;23.23;28.26;100915.88;5078857;28;20021;-80
2022/08/31 02:59:03;;;;;;;0.20;0.20;;;;;;;23.23;28.01;100910.44;5086038;28;20036;-79
2022/08/31 03:01:28;;;;;;;0.30;0.30;;;;;;;23.23;28.22;100915.88;5101094;28;20024;-79
2022/08/31 03:03:54;;;;;;;0.30;0.30;;;;;;;23.24;28.17;100912.09;5101415;28;20017;-79
2022/08/31 03:06:21;;;;;;;0.30;0.30;;;;;;;23.23;28.03;100900.38;5100459;28;20076;-79
2022/08/31 03:08:47;;;;;;;0.30;0.30;;;;;;;23.26;28.10;100909.94;5101446;28;20021;-79
2022/08/31 03:11:13;;;;;;;0.40;0.40;;;;;;;23.28;28.10;100912.41;5083784;28;20076;-79
2022/08/31 03:13:38;;;;;;;0.28;0.28;;;;;;;23.29;28.10;100908.59;5101276;28;20080;-78
2022/08/31 03:16:04;;;;;;;0.20;0.20;;;;;;;23.31;27.94;100914.59;5101086;28;20076;-79
2022/08/31 03:18:30;;;;;;;0.30;0.30;;;;;;;23.31;27.67;100907.25;5101195;28;20084;-79
2022/08/31 03:20:56;;;;;;;0.38;0.20;;;;;;;23.32;27.72;100916.22;5100726;28;20036;-79
2022/08/31 03:23:21;;;;;;;0.20;0.20;;;;;;;23.34;27.64;100905.91;5098907;28;20032;-79
2022/08/31 03:25:47;;;;;;;0.30;0.30;;;;;;;23.37;27.63;100917.13;5097351;28;20024;-79
2022/08/31 03:28:12;;;;;;;0.20;0.20;;;;;;;23.34;27.91;100912.19;5096483;28;20086;-79
2022/08/31 03:30:41;;;;;;;0.30;0.30;;;;;;;23.36;27.76;100912.72;5088895;28;20089;-78
2022/08/31 03:33:06;;;;;;;0.32;0.32;;;;;;;23.38;27.59;100917.94;5061615;28;20032;-80
2022/08/31 03:35:32;;;;;;;0.20;0.20;;;;;;;23.40;27.55;100916.59;5077304;28;20394;-79
2022/08/31 03:38:01;;;;;;;0.20;0.20;;;;;;;23.43;27.60;100917.97;5076825;28;20040;-79
2022/08/31 03:40:27;;;;;;;0.20;0.20;;;;;;;23.44;27.77;100906.81;5076097;28;20021;-79
2022/08/31 03:42:52;;;;;;;0.30;0.30;;;;;;;23.44;28.00;100904.09;5076448;28;20070;-79
2022/08/31 03:45:18;;;;;;;0.38;0.38;;;;;;;23.47;27.76;100904.63;5058445;28;20029;-79
2022/08/31 03:47:44;;;;;;;0.30;0.30;;;;;;;23.49;27.67;100903.31;5075968;28;20021;-79
2022/08/31 03:50:10;;;;;;;0.30;0.30;;;;;;;23.46;27.96;100903.81;5076235;28;20031;-80
2022/08/31 03:52:36;;;;;;;0.30;0.30;;;;;;;23.46;28.10;100898.38;5075913;28;20475;-80
2022/08/31 03:55:02;;;;;;;0.40;0.40;;;;;;;23.51;27.84;100905.75;5075753;28;20028;-80
2022/08/31 03:57:28;;;;;;;0.30;0.30;;;;;;;23.53;27.87;100906.31;5075730;28;20063;-80
2022/08/31 04:00:14;;;;;;;0.40;0.40;;;;;;;23.53;27.87;100903.59;5076022;28;20044;-79
2022/08/31 04:02:39;;;;;;;0.30;0.30;;;;;;;23.56;27.96;100897.59;5075747;28;20082;-79
2022/08/31 04:05:05;;;;;;;0.32;0.32;;;;;;;23.59;27.89;100905.25;5075633;28;20021;-78
2022/08/31 04:07:31;;;;;;;0.30;0.30;;;;;;;23.60;27.75;100904.19;5075787;28;20036;-78
2022/08/31 04:09:56;;;;;;;0.40;0.40;;;;;;;23.61;28.02;100903.09;5075543;28;20021;-78
2022/08/31 04:12:22;;;;;;;0.40;0.40;;;;;;;23.62;27.79;100897.38;5075242;28;20379;-78
2022/08/31 04:14:47;;;;;;;0.30;0.30;;;;;;;23.60;27.84;100898.75;5075721;28;20177;-78
2022/08/31 04:17:13;;;;;;;0.30;0.30;;;;;;;23.61;27.69;100903.09;5075007;28;20127;-78
2022/08/31 04:19:40;;;;;;;0.43;0.43;;;;;;;23.65;27.60;100906.16;5074983;28;20091;-78
2022/08/31 04:22:06;;;;;;;0.35;0.35;;;;;;;23.65;27.60;100906.16;5074969;28;20024;-79
2022/08/31 04:24:31;;;;;;;0.55;0.55;;;;;;;23.67;27.69;100902.06;5074892;28;20034;-79
2022/08/31 04:26:57;;;;;;;0.38;0.38;;;;;;;23.69;27.72;100899.88;5075632;28;20119;-78
2022/08/31 04:29:23;;;;;;;0.38;0.38;;;;;;;23.68;27.67;100900.97;5075460;28;20044;-78
2022/08/31 04:31:48;;;;;;;0.30;0.30;;;;;;;23.69;27.75;100904.53;5075409;28;20029;-77
2022/08/31 04:34:14;;;;;;;0.43;0.40;;;;;;;23.65;28.23;100906.97;5071178;28;20488;-77
2022/08/31 04:36:39;;;;;;;0.40;0.40;;;;;;;23.67;27.62;100907.50;5037461;28;20431;-77
2022/08/31 04:39:05;;;;;;;0.30;0.30;;;;;;;23.71;27.59;100900.44;5054912;28;20056;-78
2022/08/31 04:41:31;;;;;;;0.40;0.40;;;;;;;23.72;27.92;100910.28;5054661;28;20043;-78
2022/08/31 04:43:58;;;;;;;0.65;0.52;;;;;;;23.74;27.57;100910.81;5055095;28;20041;-77
2022/08/31 04:46:24;;;;;;;0.40;0.40;;;;;;;23.78;27.78;100903.78;5055114;28;20096;-78
2022/08/31 04:48:49;;;;;;;0.40;0.40;;;;;;;23.80;27.81;100907.06;5054519;28;20481;-78
2022/08/31 04:51:20;;;;;;;0.60;0.45;;;;;;;23.69;28.20;100902.59;5054511;28;20037;-77
2022/08/31 04:53:46;;;;;;;0.40;0.40;;;;;;;23.70;27.77;100897.97;5037384;28;20025;-77
2022/08/31 04:56:14;;;;;;;0.40;0.40;;;;;;;23.77;28.44;100904.84;5054547;28;20029;-77
2022/08/31 04:58:40;;;;;;;0.65;0.50;;;;;;;23.69;28.38;100902.59;5037060;28;20027;-77
2022/08/31 05:01:14;;;;;;;0.40;0.40;;;;;;;23.73;28.03;100902.91;5054302;28;20108;-78
2022/08/31 05:03:39;;;;;;;0.30;0.30;;;;;;;23.80;28.35;100900.75;5054477;28;20028;-78
2022/08/31 05:06:05;;;;;;;0.40;0.30;;;;;;;23.79;28.39;100913.59;5037086;28;20334;-78
2022/08/31 05:08:31;;;;;;;1.58;0.30;;;;;;;23.76;28.49;100908.66;5054564;28;20491;-78
2022/08/31 05:10:56;;;;;;;0.30;0.30;;;;;;;23.78;28.49;100909.25;5054875;28;20107;-78
2022/08/31 05:13:22;;;;;;;1.98;0.40;;;;;;;23.81;27.98;100910.63;5054165;28;20531;-79
2022/08/31 05:15:47;;;;;;;2.15;0.50;;;;;;;23.82;28.21;100912.28;5054450;28;20048;-78
2022/08/31 05:18:13;;;;;;;0.40;0.40;;;;;;;23.76;28.18;100907.84;5055001;28;20052;-77
2022/08/31 05:20:38;;;;;;;0.40;0.22;;;;;;;23.85;28.17;100908.19;5055341;28;20490;-77
2022/08/31 05:23:04;;;;;;;0.30;0.30;;;;;;;23.83;28.27;100918.56;5055483;28;20104;-77
2022/08/31 05:25:30;;;;;;;0.90;0.50;;;;;;;23.81;28.08;100902.44;5037051;28;20029;-77
2022/08/31 05:27:55;;;;;;;0.50;0.50;;;;;;;23.84;28.49;100909.31;5038372;28;20120;-77
2022/08/31 05:30:21;;;;;;;0.30;0.30;;;;;;;23.87;28.16;100919.66;5037329;28;20023;-78
2022/08/31 05:32:47;;;;;;;0.38;0.35;;;;;;;23.86;27.74;100912.56;5056757;28;20033;-78
2022/08/31 05:35:12;;;;;;;0.43;0.43;;;;;;;23.88;27.84;100915.84;5067385;28;20063;-78
2022/08/31 05:37:38;;;;;;;0.22;0.20;;;;;;;23.89;27.92;100918.34;5056926;28;20475;-78
2022/08/31 05:40:04;;;;;;;0.38;0.30;;;;;;;23.89;27.72;100917.50;5075733;28;20116;-78
2022/08/31 05:42:30;;;;;;;0.30;0.30;;;;;;;23.92;27.60;100909.63;5074717;28;20044;-78
2022/08/31 05:44:55;;;;;;;0.50;0.30;;;;;;;23.93;27.58;100913.16;5041896;28;20021;-79
2022/08/31 05:47:21;;;;;;;0.30;0.30;;;;;;;23.95;27.18;100905.53;5074475;28;20025;-78
2022/08/31 05:49:47;;;;;;;0.30;0.30;;;;;;;23.99;27.41;100912.09;5075289;28;20470;-79
2022/08/31 05:52:12;;;;;;;1.35;0.32;;;;;;;24.00;27.34;100911.00;5056972;28;20108;-76
2022/08/31 05:54:39;;;;;;;0.30;0.30;;;;;;;24.00;27.21;100916.47;5056494;28;20051;-78
2022/08/31 05:57:04;;;;;;;0.30;0.30;;;;;;;23.99;27.43;100912.09;5074336;28;20071;-78
2022/08/31 05:59:30;;;;;;;0.68;0.30;;;;;;;24.00;27.10;100909.09;5073764;28;20032;-79
2022/08/31 06:01:55;;;;;;;0.20;0.20;;;;;;;24.06;26.48;100900.94;5073981;28;20031;-78
2022/08/31 06:04:21;;;;;;;0.43;0.30;;;;;;;24.10;26.96;100912.97;5073882;28;20459;-78
2022/08/31 06:06:46;;;;;;;0.30;0.30;;;;;;;24.03;26.47;100915.13;5073677;28;20352;-77
2022/08/31 06:09:12;;;;;;;0.20;0.20;;;;;;;24.05;26.53;100905.56;5073897;28;20048;-77
2022/08/31 06:11:40;;;;;;;0.40;0.32;;;;;;;24.08;26.51;100909.69;5074049;28;20035;-78
2022/08/31 06:14:06;;;;;;;0.20;0.20;;;;;;;24.08;26.45;100905.06;5074657;28;20032;-78
2022/08/31 06:16:32;;;;;;;0.40;0.40;;;;;;;24.07;26.61;100908.88;5075570;28;20040;-78
2022/08/31 06:18:58;;;;;;;0.40;0.40;;;;;;;24.08;26.19;100915.16;5057017;28;20017;-77
2022/08/31 06:21:32;;;;;;;0.38;0.38;;;;;;;24.09;26.09;100911.31;5074985;28;20086;-77
2022/08/31 06:23:58;;;;;;;0.38;0.30;;;;;;;24.06;26.75;100915.44;5074720;28;20106;-77
2022/08/31 06:26:24;;;;;;;0.30;0.30;;;;;;;24.10;26.80;100902.88;5074675;28;20451;-79
2022/08/31 06:28:56;;;;;;;0.40;0.40;;;;;;;24.12;26.48;100900.69;5075127;28;20158;-78
2022/08/31 06:31:25;;;;;;;0.30;0.30;;;;;;;24.06;25.87;100912.69;5074311;28;20069;-77
2022/08/31 06:33:51;;;;;;;0.30;0.30;;;;;;;24.00;26.05;100909.09;5075369;28;20036;-79
2022/08/31 06:36:18;;;;;;;0.43;0.40;;;;;;;23.97;26.15;100908.81;5078006;28;20021;-78
2022/08/31 06:38:44;;;;;;;0.30;0.30;;;;;;;24.05;25.61;100911.03;5077847;28;20020;-77
2022/08/31 06:41:24;;;;;;;7.88;3.95;;;;;;;24.07;26.20;100903.41;5078448;28;20027;-76
2022/08/31 06:43:49;;;;;;;2.55;1.40;;;;;;;24.09;25.37;100911.31;5078477;28;20359;-78
2022/08/31 06:46:16;;;;;;;3.38;1.25;;;;;;;24.07;25.73;100908.88;5078540;28;20111;-78
2022/08/31 06:48:42;;;;;;;1.40;0.90;;;;;;;24.12;25.40;100910.81;5078084;28;20044;-77
2022/08/31 06:51:07;;;;;;;1.90;0.88;;;;;;;24.10;25.72;100913.81;5077838;28;20103;-79
2022/08/31 06:53:34;;;;;;;1.90;1.05;;;;;;;24.10;25.85;100913.81;5082009;28;20111;-80
2022/08/31 06:56:06;;;;;;;1.98;0.90;;;;;;;24.15;25.53;100911.09;5045812;28;20081;-78
2022/08/31 06:58:31;;;;;;;1.70;0.80;;;;;;;24.17;25.50;100898.00;5060609;28;20032;-78
2022/08/31 07:00:58;;;;;;;1.23;0.80;;;;;;;24.18;25.75;100899.66;5078860;28;20048;-78
2022/08/31 07:03:32;;;;;;;0.98;0.65;;;;;;;24.16;25.04;100901.81;5077098;28;20082;-79
2022/08/31 07:05:57;;;;;;;1.42;0.80;;;;;;;24.21;24.95;100897.47;5044686;28;20044;-79
2022/08/31 07:08:23;;;;;;;0.80;0.70;;;;;;;24.19;24.80;100900.47;5078581;28;20040;-77
2022/08/31 07:10:49;;;;;;;1.52;0.73;;;;;;;24.14;25.27;100897.69;5077166;28;20044;-78
2022/08/31 07:13:15;;;;;;;2.25;0.68;;;;;;;24.12;25.27;100897.97;5077738;28;20029;-78
2022/08/31 07:15:40;;;;;;;1.08;0.70;;;;;;;24.02;25.74;100906.09;5061329;28;20028;-77
2022/08/31 07:18:06;;;;;;;3.78;1.02;;;;;;;24.07;25.66;100900.66;5077640;28;20383;-76
2022/08/31 07:20:31;;;;;;;1.60;0.60;;;;;;;24.15;25.54;100894.72;5079464;28;20024;-77
2022/08/31 07:22:57;;;;;;;2.97;0.95;;;;;;;24.05;25.66;100889.19;5077995;28;20025;-78
2022/08/31 07:25:25;;;;;;;8.63;3.40;;;;;;;24.12;25.31;100899.88;5077895;28;20131;-76
2022/08/31 07:27:54;;;;;;;18.77;6.40;;;;;;;24.07;25.75;100899.84;5059896;28;20036;-76
2022/08/31 07:30:22;;;;;;;6.15;2.20;;;;;;;23.98;25.61;100905.81;5077538;28;20024;-79
2022/08/31 07:32:49;;;;;;;5.85;2.40;;;;;;;23.98;25.70;100905.00;5043360;28;20212;-77
2022/08/31 07:35:17;;;;;;;6.25;2.28;;;;;;;23.98;25.46;100899.53;5060056;28;20049;-77
2022/08/31 07:43:12;;;;;;;;;;;;;;;24.18;25.13;100894.19;5077003;28;20031;-77
2022/08/31 07:45:37;;;;;;;2.55;1.25;;;;;;;24.27;24.96;100888.22;5076211;28;19975;-76
2022/08/31 07:48:03;;;;;;;4.15;1.10;;;;;;;24.21;24.91;100886.53;5042445;28;20378;-78
2022/08/31 07:50:30;;;;;;;2.60;1.10;;;;;;;24.25;25.14;100877.56;5077670;28;20522;-76
2022/08/31 07:52:57;;;;;;;2.40;1.05;;;;;;;24.22;25.31;100883.53;5077928;28;20115;-77
2022/08/31 07:55:23;;;;;;;2.28;1.00;;;;;;;24.36;25.02;100883.88;5087216;28;20028;-78
2022/08/31 07:57:52;;;;;;;1.60;0.80;;;;;;;24.35;24.84;100882.22;5054480;28;20045;-78
2022/08/31 08:00:20;;;;;;;2.40;0.90;;;;;;;24.38;24.67;100887.97;5093526;28;20032;-77
2022/08/31 08:02:50;;;;;;;1.58;0.90;;;;;;;24.36;24.92;100884.69;5095830;28;20028;-78
2022/08/31 08:05:21;;;;;;;0.90;0.60;;;;;;;24.34;24.88;100880.59;5062886;28;20028;-76
2022/08/31 08:07:50;;;;;;;1.38;0.80;;;;;;;24.35;24.60;100882.22;5081816;28;20025;-77
2022/08/31 08:10:17;;;;;;;2.10;0.88;;;;;;;24.24;25.34;100884.09;5080646;28;20016;-77
2022/08/31 08:12:45;;;;;;;2.22;0.63;;;;;;;24.28;25.30;100881.66;5097559;28;20036;-77
2022/08/31 08:15:11;;;;;;;0.73;0.50;;;;;;;24.31;24.96;100881.13;5096451;28;20062;-77
2022/08/31 08:17:41;;;;;;;0.75;0.47;;;;;;;24.38;24.73;100879.75;5080734;28;20067;-78
2022/08/31 08:20:08;;;;;;;1.00;0.60;;;;;;;24.40;24.78;100874.03;5066526;28;20526;-76
2022/08/31 08:22:37;;;;;;;0.77;0.60;;;;;;;24.47;24.70;100880.06;5066008;28;20111;-76
2022/08/31 08:25:06;;;;;;;1.45;0.60;;;;;;;24.46;25.01;100883.91;5076845;28;20016;-78
2022/08/31 08:27:32;;;;;;;2.33;0.57;;;;;;;24.43;24.97;100873.50;5078101;28;20028;-79
2022/08/31 08:29:58;;;;;;;0.80;0.50;;;;;;;24.53;24.56;100878.19;5078357;28;20192;-77
2022/08/31 08:32:25;;;;;;;0.60;0.50;;;;;;;24.52;24.36;100880.06;5076636;28;20029;-77
2022/08/31 08:34:50;;;;;;;1.30;0.50;;;;;;;24.54;24.95;100886.16;5058031;28;20068;-76
2022/08/31 08:37:16;;;;;;;0.82;0.70;;;;;;;24.39;24.89;100877.88;5075028;28;20102;-76
2022/08/31 08:39:41;;;;;;;0.90;0.40;;;;;;;24.49;24.83;100879.78;5075240;28;20032;-76
2022/08/31 08:42:08;;;;;;;0.45;0.35;;;;;;;24.47;24.64;100880.06;5058347;28;20120;-75
2022/08/31 08:44:34;;;;;;;0.50;0.40;;;;;;;24.44;24.93;100886.09;5061431;28;20379;-76
2022/08/31 08:47:02;;;;;;;0.32;0.30;;;;;;;24.40;24.42;100873.22;5040553;28;20024;-77
2022/08/31 08:49:27;;;;;;;0.40;0.40;;;;;;;24.50;24.45;100882.25;5007430;28;20410;-76
2022/08/31 08:52:00;;;;;;;1.00;0.50;;;;;;;24.50;24.21;100879.53;5075774;28;20028;-78
2022/08/31 08:54:34;;;;;;;0.90;0.30;;;;;;;24.50;24.52;100879.53;5075331;28;20175;-77
2022/08/31 08:57:02;;;;;;;0.43;0.40;;;;;;;24.43;24.54;100884.44;5040511;28;20020;-78
2022/08/31 08:59:28;;;;;;;1.38;0.40;;;;;;;24.48;24.19;100876.25;5057665;28;20032;-76
2022/08/31 09:01:56;;;;;;;0.32;0.32;;;;;;;24.46;24.66;100881.16;5084316;28;20024;-77
2022/08/31 09:04:43;;;;;;;1.23;0.52;;;;;;;24.48;24.32;100887.19;5063161;28;20028;-77
2022/08/31 09:07:43;;;;;;;0.60;0.50;;;;;;;24.57;24.18;100883.97;4977094;28;20133;-79
2022/08/31 09:10:24;;;;;;;1.85;0.40;;;;;;;24.55;24.18;100887.78;4978161;28;20042;-79
2022/08/31 09:13:13;;;;;;;1.05;0.50;;;;;;;24.58;23.90;100874.66;4959965;29;20102;-77
2022/08/31 09:15:47;;;;;;;2.92;0.60;;;;;;;24.55;23.95;100898.69;4902069;29;20535;-78
2022/08/31 09:18:19;;;;;;;0.65;0.40;;;;;;;24.46;24.51;100889.38;4902363;29;20539;-77
2022/08/31 09:21:03;;;;;;;0.60;0.50;;;;;;;24.54;24.20;100891.63;4899752;29;20045;-76
2022/08/31 09:23:29;;;;;;;0.98;0.50;;;;;;;24.55;24.36;100898.69;4899220;29;20044;-75
2022/08/31 09:25:57;;;;;;;0.75;0.40;;;;;;;24.58;24.04;100891.91;4886103;29;20113;-76
2022/08/31 09:28:45;;;;;;;0.82;0.50;;;;;;;24.53;24.15;100884.47;4867006;29;20041;-76
2022/08/31 09:31:46;;;;;;;0.68;0.50;;;;;;;24.48;23.96;100895.38;4866186;29;20493;-76
2022/08/31 09:34:30;;;;;;;1.10;0.60;;;;;;;24.52;24.02;100899.19;4862253;29;20064;-75
2022/08/31 09:37:21;;;;;;;0.65;0.65;;;;;;;24.53;24.09;100898.13;4860379;29;20049;-76
2022/08/31 09:39:48;;;;;;;0.47;0.47;;;;;;;24.54;24.24;100894.34;4878188;29;20037;-75
2022/08/31 09:42:18;;;;;;;1.88;0.43;;;;;;;24.53;24.38;100894.59;4878463;29;20079;-75
2022/08/31 09:44:46;;;;;;;0.40;0.40;;;;;;;24.52;23.99;100891.00;4894857;29;20194;-75
2022/08/31 09:47:43;;;;;;;14.40;5.88;;;;;;;24.57;23.95;100889.44;4900258;29;20127;-76
2022/08/31 09:50:09;;;;;;;22.02;8.60;;;;;;;24.56;24.34;100885.88;4915951;29;20064;-76
2022/08/31 09:55:23;;;;;;;;;;;;;;;24.61;23.78;100888.63;4974024;28;20037;-75
2022/08/31 09:58:01;;;;;;;9.40;3.13;;;;;;;24.52;23.84;100885.53;4990832;28;19949;-75
2022/08/31 10:00:43;;;;;;;3.83;1.95;;;;;;;24.67;24.00;100887.53;4992637;28;20154;-76
2022/08/31 10:03:22;;;;;;;4.45;2.03;;;;;;;24.60;24.05;100894.38;4992844;28;20464;-75
2022/08/31 10:05:50;;;;;;;3.67;1.52;;;;;;;24.60;24.08;100888.91;4992920;28;20034;-75
2022/08/31 10:08:40;;;;;;;3.97;1.33;;;;;;;24.65;23.94;100886.19;4976765;28;20117;-75
2022/08/31 10:11:30;;;;;;;2.08;1.05;;;;;;;24.55;23.71;100887.78;5074213;28;20082;-76
2022/08/31 10:14:20;;;;;;;1.80;0.90;;;;;;;24.52;23.85;100877.34;5064281;28;20047;-76
2022/08/31 10:16:50;;;;;;;2.45;1.10;;;;;;;24.55;23.88;100881.50;5057897;28;20040;-76
2022/08/31 10:19:29;;;;;;;0.90;0.63;;;;;;;24.60;23.97;100888.91;5056074;28;20032;-76
2022/08/31 10:22:17;;;;;;;3.67;0.75;;;;;;;24.68;23.67;100874.69;5057957;28;20371;-77
2022/08/31 10:24:45;;;;;;;3.38;0.70;;;;;;;24.61;24.12;100882.31;5060511;28;20032;-76
2022/08/31 10:27:16;;;;;;;1.80;0.82;;;;;;;24.58;24.06;100886.44;5058354;28;20024;-77
2022/08/31 10:29:50;;;;;;;1.80;1.05;;;;;;;24.69;24.11;100887.28;5076431;28;20170;-76
2022/08/31 10:32:30;;;;;;;1.67;0.90;;;;;;;24.66;23.99;100885.06;5073807;28;20028;-78
2022/08/31 10:35:10;;;;;;;2.22;0.85;;;;;;;24.70;24.09;100895.19;5042282;28;20092;-78
2022/08/31 10:37:55;;;;;;;1.30;0.75;;;;;;;24.67;24.12;100895.72;5060239;28;20051;-79
2022/08/31 10:40:30;;;;;;;1.38;0.90;;;;;;;24.64;24.11;100896.25;5055709;28;20084;-78
2022/08/31 10:43:07;;;;;;;1.75;0.93;;;;;;;24.63;24.38;100883.72;5056005;28;20021;-77
2022/08/31 10:45:33;;;;;;;7.38;4.22;;;;;;;24.63;24.62;100891.91;5056713;28;20078;-78
2022/08/31 10:47:59;;;;;;;3.15;1.75;;;;;;;24.73;24.49;100896.56;5056004;28;20474;-76
2022/08/31 10:50:44;;;;;;;4.35;1.83;;;;;;;24.72;24.51;100894.94;5074908;28;20055;-76
2022/08/31 10:53:31;;;;;;;33.67;12.27;;;;;;;24.71;24.66;100879.63;5056350;28;20032;-77
2022/08/31 10:56:13;;;;;;;17.75;6.80;;;;;;;24.67;24.91;100873.88;5057153;28;20040;-76
2022/08/31 10:58:45;;;;;;;9.77;3.90;;;;;;;24.79;24.86;100878.28;5057649;28;20032;-76
2022/08/31 11:01:42;;;;;;;6.07;2.60;;;;;;;24.78;24.82;100869.22;5073052;28;20424;-77
2022/08/31 11:04:18;;;;;;;18.85;2.60;;;;;;;24.68;24.72;100864.59;5058426;28;20039;-76
2022/08/31 11:06:46;;;;;;;11.90;2.20;;;;;;;24.70;24.85;100878.00;5073540;28;20554;-78
2022/08/31 11:09:18;;;;;;;6.93;1.60;;;;;;;24.75;25.00;100878.00;5056157;28;20031;-77
2022/08/31 11:12:06;;;;;;;8.95;1.65;;;;;;;24.76;24.90;100876.09;5040500;28;20056;-76
2022/08/31 11:14:44;;;;;;;6.53;1.23;;;;;;;24.72;24.89;100870.34;5022520;28;20068;-78
2022/08/31 11:17:22;;;;;;;5.07;1.52;;;;;;;24.70;24.79;100880.72;5074513;28;20102;-77
2022/08/31 11:20:16;;;;;;;3.97;1.08;;;;;;;24.83;24.80;100887.56;5076048;28;20028;-78
2022/08/31 11:22:45;;;;;;;;;;;;;;;24.84;24.71;100884.56;5062548;28;20031;-76
2022/08/31 11:25:36;;;;;;;3.83;1.08;;;;;;;24.80;25.25;100875.28;5076977;28;20465;-77
2022/08/31 11:28:30;;;;;;;0.95;0.70;;;;;;;24.75;25.36;100880.72;5077039;28;20040;-77
2022/08/31 11:30:56;;;;;;;1.85;0.65;;;;;;;24.84;25.45;100879.09;5060634;28;20032;-76
2022/08/31 11:33:26;;;;;;;2.20;1.08;;;;;;;24.87;25.54;100867.63;5059159;28;20042;-76
2022/08/31 11:36:05;;;;;;;0.52;0.52;;;;;;;24.77;25.70;100875.81;5060927;28;20040;-77
2022/08/31 11:38:53;;;;;;;0.70;0.70;;;;;;;24.84;25.95;100873.63;5077737;28;20032;-76
2022/08/31 11:41:35;;;;;;;1.95;0.75;;;;;;;24.79;26.08;100865.41;5060645;28;20025;-76
2022/08/31 11:44:02;;;;;;;0.40;0.40;;;;;;;24.74;26.30;100857.22;5077311;28;20108;-76
2022/08/31 11:46:38;;;;;;;0.77;0.60;;;;;;;24.92;25.99;100864.91;5059289;28;20031;-75
2022/08/31 11:49:04;;;;;;;1.08;0.55;;;;;;;24.87;26.20;100856.69;5076687;28;20025;-78